Terminal Aerodrome Forecast
Issued by NWS Albuquerque, NM

Home | Current Version | Previous Version | Text Only | Print | Product List | Glossary On
Versions: 1 2 3 4 5 6 7 8 9 10 11 12 13 14 15
211
FTUS45 KABQ 232321
TAFABQ
TAF
KABQ 232321Z 2400/2424 34015G22KT P6SM FEW250
     FM240100 02011KT P6SM FEW250
     FM240400 08020G30KT P6SM FEW250
     FM241200 09013KT P6SM FEW250
     FM241600 12010KT P6SM FEW250
     FM242000 18006KT P6SM FEW250=

USA.gov is the U.S. government's official web portal to all federal, state and local government web resources and services.